sensor_id;sensor_type;location;lat;lon;timestamp;pressure;altitude;pressure_sealevel;temperature;humidity
46836;BME280;32573;51.290;6.926;2023-02-20T00:02:20;101235.34;;;5.43;100.00
46836;BME280;32573;51.290;6.926;2023-02-20T00:04:50;101228.38;;;5.42;100.00
46836;BME280;32573;51.290;6.926;2023-02-20T00:07:18;101224.06;;;5.43;100.00
46836;BME280;32573;51.290;6.926;2023-02-20T00:09:46;101233.56;;;5.42;100.00
46836;BME280;32573;51.290;6.926;2023-02-20T00:12:15;101217.75;;;5.39;100.00
46836;BME280;32573;51.290;6.926;2023-02-20T00:14:43;101222.94;;;5.39;100.00
46836;BME280;32573;51.290;6.926;2023-02-20T00:17:12;101221.16;;;5.38;100.00
46836;BME280;32573;51.290;6.926;2023-02-20T00:19:40;101231.44;;;5.36;100.00
46836;BME280;32573;51.290;6.926;2023-02-20T00:22:10;101218.47;;;5.36;100.00
46836;BME280;32573;51.290;6.926;2023-02-20T00:24:38;101211.47;;;5.35;100.00
46836;BME280;32573;51.290;6.926;2023-02-20T00:27:07;101218.38;;;5.35;100.00
46836;BME280;32573;51.290;6.926;2023-02-20T00:29:35;101213.97;;;5.34;100.00
46836;BME280;32573;51.290;6.926;2023-02-20T00:32:04;101217.50;;;5.34;100.00
46836;BME280;32573;51.290;6.926;2023-02-20T00:34:32;101207.00;;;5.33;100.00
46836;BME280;32573;51.290;6.926;2023-02-20T00:37:01;101216.56;;;5.34;100.00
46836;BME280;32573;51.290;6.926;2023-02-20T00:39:31;101218.38;;;5.35;100.00
46836;BME280;32573;51.290;6.926;2023-02-20T00:42:00;101211.47;;;5.35;100.00
46836;BME280;32573;51.290;6.926;2023-02-20T00:44:29;101214.06;;;5.35;100.00
46836;BME280;32573;51.290;6.926;2023-02-20T00:46:57;101215.09;;;5.37;100.00
46836;BME280;32573;51.290;6.926;2023-02-20T00:49:26;101197.69;;;5.36;100.00
46836;BME280;32573;51.290;6.926;2023-02-20T00:52:07;101197.69;;;5.36;100.00
46836;BME280;32573;51.290;6.926;2023-02-20T00:54:37;101194.31;;;5.37;100.00
46836;BME280;32573;51.290;6.926;2023-02-20T00:57:05;101202.09;;;5.37;100.00
46836;BME280;32573;51.290;6.926;2023-02-20T00:59:33;101190.91;;;5.38;100.00
46836;BME280;32573;51.290;6.926;2023-02-20T01:02:02;101185.84;;;5.40;100.00
46836;BME280;32573;51.290;6.926;2023-02-20T01:04:31;101182.34;;;5.39;100.00
46836;BME280;32573;51.290;6.926;2023-02-20T01:06:59;101178.94;;;5.40;100.00
46836;BME280;32573;51.290;6.926;2023-02-20T01:09:27;101172.94;;;5.41;100.00
46836;BME280;32573;51.290;6.926;2023-02-20T01:11:57;101168.66;;;5.42;100.00
46836;BME280;32573;51.290;6.926;2023-02-20T01:14:25;101159.19;;;5.43;100.00
46836;BME280;32573;51.290;6.926;2023-02-20T01:16:54;101153.97;;;5.43;100.00
46836;BME280;32573;51.290;6.926;2023-02-20T01:19:22;101157.59;;;5.45;100.00
46836;BME280;32573;51.290;6.926;2023-02-20T01:21:52;101148.19;;;5.47;100.00
46836;BME280;32573;51.290;6.926;2023-02-20T01:24:20;101147.38;;;5.48;100.00
46836;BME280;32573;51.290;6.926;2023-02-20T01:26:49;101138.78;;;5.49;100.00
46836;BME280;32573;51.290;6.926;2023-02-20T01:29:18;101138.00;;;5.50;100.00
46836;BME280;32573;51.290;6.926;2023-02-20T01:31:47;101129.41;;;5.51;100.00
46836;BME280;32573;51.290;6.926;2023-02-20T01:34:18;101135.47;;;5.51;100.00
46836;BME280;32573;51.290;6.926;2023-02-20T01:36:47;101133.81;;;5.52;100.00
46836;BME280;32573;51.290;6.926;2023-02-20T01:39:17;101127.81;;;5.53;100.00
46836;BME280;32573;51.290;6.926;2023-02-20T01:41:47;101115.72;;;5.53;100.00
46836;BME280;32573;51.290;6.926;2023-02-20T01:44:20;101129.69;;;5.55;100.00
46836;BME280;32573;51.290;6.926;2023-02-20T01:46:51;101140.09;;;5.55;100.00
46836;BME280;32573;51.290;6.926;2023-02-20T01:49:26;101137.50;;;5.55;100.00
46836;BME280;32573;51.290;6.926;2023-02-20T01:52:00;101133.19;;;5.56;100.00
46836;BME280;32573;51.290;6.926;2023-02-20T01:54:31;101128.19;;;5.59;100.00
46836;BME280;32573;51.290;6.926;2023-02-20T01:57:03;101134.28;;;5.59;100.00
46836;BME280;32573;51.290;6.926;2023-02-20T01:59:37;101121.31;;;5.59;100.00
46836;BME280;32573;51.290;6.926;2023-02-20T02:02:07;101114.41;;;5.60;100.00
46836;BME280;32573;51.290;6.926;2023-02-20T02:04:36;101119.59;;;5.60;100.00
46836;BME280;32573;51.290;6.926;2023-02-20T02:07:07;101125.81;;;5.62;100.00
46836;BME280;32573;51.290;6.926;2023-02-20T02:09:40;101108.50;;;5.62;100.00
46836;BME280;32573;51.290;6.926;2023-02-20T02:12:11;101099.03;;;5.63;100.00
46836;BME280;32573;51.290;6.926;2023-02-20T02:14:41;101105.09;;;5.63;100.00
46836;BME280;32573;51.290;6.926;2023-02-20T02:17:41;101104.22;;;5.63;100.00
46836;BME280;32573;51.290;6.926;2023-02-20T02:20:51;101086.84;;;5.62;100.00
46836;BME280;32573;51.290;6.926;2023-02-20T02:26:46;101085.03;;;5.61;100.00
46836;BME280;32573;51.290;6.926;2023-02-20T02:29:42;101087.56;;;5.59;100.00
46836;BME280;32573;51.290;6.926;2023-02-20T02:35:59;101063.91;;;5.55;100.00
46836;BME280;32573;51.290;6.926;2023-02-20T02:38:41;101056.00;;;5.53;100.00
46836;BME280;32573;51.290;6.926;2023-02-20T02:41:19;101056.69;;;5.51;100.00
46836;BME280;32573;51.290;6.926;2023-02-20T02:43:53;101041.06;;;5.49;100.00
46836;BME280;32573;51.290;6.926;2023-02-20T02:46:27;101034.84;;;5.47;100.00
46836;BME280;32573;51.290;6.926;2023-02-20T02:48:59;101040.84;;;5.46;100.00
46836;BME280;32573;51.290;6.926;2023-02-20T02:51:36;101038.16;;;5.45;100.00
46836;BME280;32573;51.290;6.926;2023-02-20T02:54:09;101047.53;;;5.43;100.00
46836;BME280;32573;51.290;6.926;2023-02-20T02:56:39;101049.13;;;5.40;100.00
46836;BME280;32573;51.290;6.926;2023-02-20T02:59:12;101049.13;;;5.40;100.00
46836;BME280;32573;51.290;6.926;2023-02-20T03:01:43;101051.56;;;5.37;100.00
46836;BME280;32573;51.290;6.926;2023-02-20T03:04:14;101053.34;;;5.38;100.00
46836;BME280;32573;51.290;6.926;2023-02-20T03:06:54;101052.34;;;5.36;100.00
46836;BME280;32573;51.290;6.926;2023-02-20T03:09:25;101045.38;;;5.35;100.00
46836;BME280;32573;51.290;6.926;2023-02-20T03:11:56;101041.88;;;5.35;100.00
46836;BME280;32573;51.290;6.926;2023-02-20T03:14:29;101039.16;;;5.33;100.00
46836;BME280;32573;51.290;6.926;2023-02-20T03:17:22;101028.72;;;5.32;100.00
46836;BME280;32573;51.290;6.926;2023-02-20T03:19:57;101033.78;;;5.30;100.00
46836;BME280;32573;51.290;6.926;2023-02-20T03:22:33;101032.00;;;5.29;100.00
46836;BME280;32573;51.290;6.926;2023-02-20T03:25:05;101021.53;;;5.28;100.00
46836;BME280;32573;51.290;6.926;2023-02-20T03:27:39;101012.84;;;5.27;100.00
46836;BME280;32573;51.290;6.926;2023-02-20T03:30:14;101012.84;;;5.27;100.00
46836;BME280;32573;51.290;6.926;2023-02-20T03:32:45;101011.13;;;5.28;100.00
46836;BME280;32573;51.290;6.926;2023-02-20T03:35:34;101009.38;;;5.27;100.00
46836;BME280;32573;51.290;6.926;2023-02-20T03:38:23;101024.00;;;5.26;100.00
46836;BME280;32573;51.290;6.926;2023-02-20T03:41:12;101024.94;;;5.27;100.00
46836;BME280;32573;51.290;6.926;2023-02-20T03:44:01;101023.22;;;5.27;100.00
46836;BME280;32573;51.290;6.926;2023-02-20T03:46:32;101015.44;;;5.27;100.00
46836;BME280;32573;51.290;6.926;2023-02-20T03:49:05;101013.63;;;5.26;100.00
46836;BME280;32573;51.290;6.926;2023-02-20T03:51:36;101017.94;;;5.26;100.00
46836;BME280;32573;51.290;6.926;2023-02-20T03:54:13;101010.84;;;5.23;100.00
46836;BME280;32573;51.290;6.926;2023-02-20T03:56:45;101013.44;;;5.23;100.00
46836;BME280;32573;51.290;6.926;2023-02-20T03:59:22;101013.34;;;5.22;100.00
46836;BME280;32573;51.290;6.926;2023-02-20T04:01:56;101015.94;;;5.22;100.00
46836;BME280;32573;51.290;6.926;2023-02-20T04:04:31;101011.44;;;5.19;100.00
46836;BME280;32573;51.290;6.926;2023-02-20T04:07:04;101004.47;;;5.18;100.00
46836;BME280;32573;51.290;6.926;2023-02-20T04:09:37;101002.69;;;5.17;100.00
46836;BME280;32573;51.290;6.926;2023-02-20T04:12:12;101008.66;;;5.16;100.00
46836;BME280;32573;51.290;6.926;2023-02-20T04:14:43;101011.25;;;5.16;100.00
46836;BME280;32573;51.290;6.926;2023-02-20T04:17:17;101002.47;;;5.14;100.00
46836;BME280;32573;51.290;6.926;2023-02-20T04:19:48;101005.00;;;5.12;100.00
46836;BME280;32573;51.290;6.926;2023-02-20T04:22:19;101010.06;;;5.11;100.00
46836;BME280;32573;51.290;6.926;2023-02-20T04:24:54;101010.88;;;5.10;100.00
46836;BME280;32573;51.290;6.926;2023-02-20T04:27:27;101010.88;;;5.10;100.00
46836;BME280;32573;51.290;6.926;2023-02-20T04:29:57;101003.00;;;5.08;100.00
46836;BME280;32573;51.290;6.926;2023-02-20T04:32:25;101004.81;;;5.09;100.00
46836;BME280;32573;51.290;6.926;2023-02-20T04:34:54;101007.28;;;5.08;100.00
46836;BME280;32573;51.290;6.926;2023-02-20T04:37:24;100984.75;;;5.07;100.00
46836;BME280;32573;51.290;6.926;2023-02-20T04:39:56;100985.53;;;5.06;100.00
46836;BME280;32573;51.290;6.926;2023-02-20T04:42:24;100995.91;;;5.06;100.00
46836;BME280;32573;51.290;6.926;2023-02-20T04:44:53;100996.72;;;5.05;100.00
46836;BME280;32573;51.290;6.926;2023-02-20T04:47:22;101001.03;;;5.04;100.00
46836;BME280;32573;51.290;6.926;2023-02-20T04:49:50;100991.44;;;5.03;100.00
46836;BME280;32573;51.290;6.926;2023-02-20T04:52:22;100993.91;;;5.02;100.00
46836;BME280;32573;51.290;6.926;2023-02-20T04:54:52;100987.94;;;5.03;100.00
46836;BME280;32573;51.290;6.926;2023-02-20T04:57:22;100984.34;;;5.01;100.00
46836;BME280;32573;51.290;6.926;2023-02-20T04:59:51;100987.75;;;5.00;100.00
46836;BME280;32573;51.290;6.926;2023-02-20T05:02:20;100988.66;;;5.00;100.00
46836;BME280;32573;51.290;6.926;2023-02-20T05:04:48;100991.13;;;4.98;100.00
46836;BME280;32573;51.290;6.926;2023-02-20T05:07:17;100989.34;;;4.97;100.00
46836;BME280;32573;51.290;6.926;2023-02-20T05:09:45;100987.53;;;4.96;100.00
46836;BME280;32573;51.290;6.926;2023-02-20T05:12:13;100980.56;;;4.95;100.00
46836;BME280;32573;51.290;6.926;2023-02-20T05:14:43;100973.59;;;4.94;100.00
46836;BME280;32573;51.290;6.926;2023-02-20T05:17:11;100972.69;;;4.94;100.00
46836;BME280;32573;51.290;6.926;2023-02-20T05:19:40;100965.59;;;4.91;100.00
46836;BME280;32573;51.290;6.926;2023-02-20T05:22:09;100968.19;;;4.91;100.00
46836;BME280;32573;51.290;6.926;2023-02-20T05:24:47;100974.19;;;4.90;100.00
46836;BME280;32573;51.290;6.926;2023-02-20T05:27:20;100971.59;;;4.90;100.00
46836;BME280;32573;51.290;6.926;2023-02-20T05:29:52;100965.53;;;4.90;100.00
46836;BME280;32573;51.290;6.926;2023-02-20T05:32:23;100965.53;;;4.90;100.00
46836;BME280;32573;51.290;6.926;2023-02-20T05:34:53;100967.22;;;4.89;100.00
46836;BME280;32573;51.290;6.926;2023-02-20T05:37:23;100966.41;;;4.90;100.00
46836;BME280;32573;51.290;6.926;2023-02-20T05:39:51;100962.81;;;4.88;100.00
46836;BME280;32573;51.290;6.926;2023-02-20T05:42:20;100968.00;;;4.88;100.00
46836;BME280;32573;51.290;6.926;2023-02-20T05:44:48;100977.59;;;4.89;100.00
46836;BME280;32573;51.290;6.926;2023-02-20T05:47:18;100969.81;;;4.89;100.00
46836;BME280;32573;51.290;6.926;2023-02-20T05:49:47;100970.72;;;4.90;100.00
46836;BME280;32573;51.290;6.926;2023-02-20T05:52:15;100966.41;;;4.90;100.00
46836;BME280;32573;51.290;6.926;2023-02-20T05:54:45;100960.41;;;4.91;100.00
46836;BME280;32573;51.290;6.926;2023-02-20T05:57:14;100970.00;;;4.92;100.00
46836;BME280;32573;51.290;6.926;2023-02-20T05:59:42;100957.94;;;4.93;100.00
46836;BME280;32573;51.290;6.926;2023-02-20T06:02:11;100957.13;;;4.94;100.00
46836;BME280;32573;51.290;6.926;2023-02-20T06:04:40;100964.13;;;4.95;100.00
46836;BME280;32573;51.290;6.926;2023-02-20T06:07:09;100965.91;;;4.96;100.00
46836;BME280;32573;51.290;6.926;2023-02-20T06:09:40;100964.31;;;4.98;100.00
46836;BME280;32573;51.290;6.926;2023-02-20T06:12:09;100960.88;;;4.99;100.00
46836;BME280;32573;51.290;6.926;2023-02-20T06:14:38;100962.00;;;5.03;100.00
46836;BME280;32573;51.290;6.926;2023-02-20T06:17:07;100962.19;;;5.06;100.00
46836;BME280;32573;51.290;6.926;2023-02-20T06:19:35;100962.38;;;5.09;100.00
46836;BME280;32573;51.290;6.926;2023-02-20T06:22:05;100961.88;;;5.14;100.00
46836;BME280;32573;51.290;6.926;2023-02-20T06:24:33;100968.97;;;5.17;100.00
46836;BME280;32573;51.290;6.926;2023-02-20T06:27:02;100961.34;;;5.20;100.00
46836;BME280;32573;51.290;6.926;2023-02-20T06:29:30;100964.13;;;5.23;100.00
46836;BME280;32573;51.290;6.926;2023-02-20T06:31:58;100962.66;;;5.27;100.00
46836;BME280;32573;51.290;6.926;2023-02-20T06:34:27;100974.91;;;5.29;100.00
46836;BME280;32573;51.290;6.926;2023-02-20T06:36:59;100969.91;;;5.32;100.00
46836;BME280;32573;51.290;6.926;2023-02-20T06:39:31;100983.06;;;5.35;100.00
46836;BME280;32573;51.290;6.926;2023-02-20T06:42:00;100991.84;;;5.37;100.00
46836;BME280;32573;51.290;6.926;2023-02-20T06:44:28;100991.16;;;5.40;100.00
46836;BME280;32573;51.290;6.926;2023-02-20T06:46:57;101004.19;;;5.41;100.00
46836;BME280;32573;51.290;6.926;2023-02-20T06:49:25;101000.13;;;5.45;100.00
46836;BME280;32573;51.290;6.926;2023-02-20T06:51:53;100997.63;;;5.47;100.00
46836;BME280;32573;51.290;6.926;2023-02-20T06:54:22;100992.44;;;5.47;100.00
46836;BME280;32573;51.290;6.926;2023-02-20T06:56:52;100996.81;;;5.48;100.00
46836;BME280;32573;51.290;6.926;2023-02-20T06:59:20;100996.91;;;5.49;100.00
46836;BME280;32573;51.290;6.926;2023-02-20T07:01:48;100996.00;;;5.49;100.00
46836;BME280;32573;51.290;6.926;2023-02-20T07:04:19;101010.84;;;5.51;100.00
46836;BME280;32573;51.290;6.926;2023-02-20T07:06:48;101008.38;;;5.53;100.00
46836;BME280;32573;51.290;6.926;2023-02-20T07:09:17;101001.41;;;5.52;100.00
46836;BME280;32573;51.290;6.926;2023-02-20T07:11:46;101001.56;;;5.55;100.00
46836;BME280;32573;51.290;6.926;2023-02-20T07:14:17;101014.56;;;5.55;100.00
46836;BME280;32573;51.290;6.926;2023-02-20T07:16:46;101013.75;;;5.56;100.00
46836;BME280;32573;51.290;6.926;2023-02-20T07:19:14;101008.56;;;5.56;100.00
46836;BME280;32573;51.290;6.926;2023-02-20T07:21:45;101018.94;;;5.56;100.00
46836;BME280;32573;51.290;6.926;2023-02-20T07:24:14;101012.97;;;5.57;100.00
46836;BME280;32573;51.290;6.926;2023-02-20T07:26:42;101011.25;;;5.57;100.00
46836;BME280;32573;51.290;6.926;2023-02-20T07:29:11;101010.44;;;5.58;100.00
46836;BME280;32573;51.290;6.926;2023-02-20T07:31:41;101012.16;;;5.58;100.00
46836;BME280;32573;51.290;6.926;2023-02-20T07:34:10;101007.06;;;5.59;100.00
46836;BME280;32573;51.290;6.926;2023-02-20T07:36:40;101004.47;;;5.59;100.00
46836;BME280;32573;51.290;6.926;2023-02-20T07:39:09;101012.31;;;5.61;100.00
46836;BME280;32573;51.290;6.926;2023-02-20T07:41:40;101010.63;;;5.61;100.00
46836;BME280;32573;51.290;6.926;2023-02-20T07:44:36;101011.53;;;5.62;100.00
46836;BME280;32573;51.290;6.926;2023-02-20T07:47:05;101013.31;;;5.63;100.00
46836;BME280;32573;51.290;6.926;2023-02-20T07:49:34;101012.63;;;5.66;100.00
46836;BME280;32573;51.290;6.926;2023-02-20T07:52:03;101007.53;;;5.67;100.00
46836;BME280;32573;51.290;6.926;2023-02-20T07:54:31;101027.41;;;5.67;100.00
46836;BME280;32573;51.290;6.926;2023-02-20T07:56:59;101007.53;;;5.67;100.00
46836;BME280;32573;51.290;6.926;2023-02-20T07:59:28;100998.03;;;5.68;100.00
46836;BME280;32573;51.290;6.926;2023-02-20T08:01:56;101000.72;;;5.69;100.00
46836;BME280;32573;51.290;6.926;2023-02-20T08:04:26;101002.50;;;5.70;100.00
46836;BME280;32573;51.290;6.926;2023-02-20T08:06:54;100998.22;;;5.71;100.00
46836;BME280;32573;51.290;6.926;2023-02-20T08:09:23;100995.72;;;5.72;100.00
46836;BME280;32573;51.290;6.926;2023-02-20T08:11:51;101014.91;;;5.74;100.00
46836;BME280;32573;51.290;6.926;2023-02-20T08:14:19;101011.47;;;5.75;100.00
46836;BME280;32573;51.290;6.926;2023-02-20T08:16:48;101007.28;;;5.77;100.00
46836;BME280;32573;51.290;6.926;2023-02-20T08:19:16;101013.47;;;5.79;100.00
46836;BME280;32573;51.290;6.926;2023-02-20T08:21:46;101010.94;;;5.81;100.00
46836;BME280;32573;51.290;6.926;2023-02-20T08:24:14;101006.63;;;5.81;100.00
46836;BME280;32573;51.290;6.926;2023-02-20T08:26:43;100999.06;;;5.84;100.00
46836;BME280;32573;51.290;6.926;2023-02-20T08:29:12;101011.34;;;5.87;100.00
46836;BME280;32573;51.290;6.926;2023-02-20T08:31:40;101008.03;;;5.90;100.00
46836;BME280;32573;51.290;6.926;2023-02-20T08:34:09;100997.69;;;5.91;100.00
46836;BME280;32573;51.290;6.926;2023-02-20T08:36:39;100998.63;;;5.92;100.00
46836;BME280;32573;51.290;6.926;2023-02-20T08:39:09;100998.69;;;5.93;100.00
46836;BME280;32573;51.290;6.926;2023-02-20T08:41:41;101010.13;;;5.95;100.00
46836;BME280;32573;51.290;6.926;2023-02-20T08:44:10;101006.81;;;5.98;100.00
46836;BME280;32573;51.290;6.926;2023-02-20T08:46:45;101000.00;;;6.00;100.00
46836;BME280;32573;51.290;6.926;2023-02-20T08:49:14;100995.88;;;6.03;100.00
46836;BME280;32573;51.290;6.926;2023-02-20T08:51:44;100991.56;;;6.04;100.00
46836;BME280;32573;51.290;6.926;2023-02-20T08:54:14;100996.16;;;6.08;100.00
46836;BME280;32573;51.290;6.926;2023-02-20T08:56:43;100997.97;;;6.09;100.00
46836;BME280;32573;51.290;6.926;2023-02-20T08:59:11;100997.25;;;6.12;100.00
46836;BME280;32573;51.290;6.926;2023-02-20T09:01:40;100999.03;;;6.13;100.00
46836;BME280;32573;51.290;6.926;2023-02-20T09:04:09;100996.53;;;6.14;100.00
46836;BME280;32573;51.290;6.926;2023-02-20T09:06:37;100992.28;;;6.16;100.00
46836;BME280;32573;51.290;6.926;2023-02-20T09:09:06;100986.31;;;6.17;100.00
46836;BME280;32573;51.290;6.926;2023-02-20T09:11:35;100997.69;;;6.19;100.00
46836;BME280;32573;51.290;6.926;2023-02-20T09:14:04;100993.28;;;6.18;100.00
46836;BME280;32573;51.290;6.926;2023-02-20T09:16:32;100991.69;;;6.20;100.00
46836;BME280;32573;51.290;6.926;2023-02-20T09:19:01;100999.59;;;6.22;100.00
46836;BME280;32573;51.290;6.926;2023-02-20T09:21:29;100991.84;;;6.23;100.00
46836;BME280;32573;51.290;6.926;2023-02-20T09:23:57;100998.88;;;6.24;100.00
46836;BME280;32573;51.290;6.926;2023-02-20T09:26:26;101004.94;;;6.25;100.00
46836;BME280;32573;51.290;6.926;2023-02-20T09:28:55;100999.03;;;6.28;100.00
46836;BME280;32573;51.290;6.926;2023-02-20T09:31:24;101004.34;;;6.29;100.00
46836;BME280;32573;51.290;6.926;2023-02-20T09:33:52;101007.09;;;6.32;100.00
46836;BME280;32573;51.290;6.926;2023-02-20T09:36:21;101009.00;;;6.35;100.00
46836;BME280;32573;51.290;6.926;2023-02-20T09:38:49;101008.16;;;6.36;100.00
46836;BME280;32573;51.290;6.926;2023-02-20T09:41:27;101003.97;;;6.38;100.00
46836;BME280;32573;51.290;6.926;2023-02-20T09:44:06;100996.25;;;6.39;100.00
46836;BME280;32573;51.290;6.926;2023-02-20T09:46:42;101002.34;;;6.40;100.00
46836;BME280;32573;51.290;6.926;2023-02-20T09:49:13;100994.72;;;6.43;100.00
46836;BME280;32573;51.290;6.926;2023-02-20T09:51:45;100998.31;;;6.45;100.00
46836;BME280;32573;51.290;6.926;2023-02-20T09:54:20;100997.59;;;6.47;100.00
46836;BME280;32573;51.290;6.926;2023-02-20T09:56:53;100994.28;;;6.50;100.00
46836;BME280;32573;51.290;6.926;2023-02-20T09:59:27;101000.47;;;6.52;100.00
46836;BME280;32573;51.290;6.926;2023-02-20T10:02:00;100999.75;;;6.55;100.00
46836;BME280;32573;51.290;6.926;2023-02-20T10:04:33;101000.81;;;6.58;100.00
46836;BME280;32573;51.290;6.926;2023-02-20T10:07:14;101000.97;;;6.61;100.00
46836;BME280;32573;51.290;6.926;2023-02-20T10:09:44;101009.69;;;6.62;100.00
46836;BME280;32573;51.290;6.926;2023-02-20T10:12:19;101004.56;;;6.63;100.00
46836;BME280;32573;51.290;6.926;2023-02-20T10:15:05;100997.75;;;6.65;100.00
46836;BME280;32573;51.290;6.926;2023-02-20T10:17:41;100999.72;;;6.69;100.00
46836;BME280;32573;51.290;6.926;2023-02-20T10:20:16;100977.31;;;6.72;100.00
46836;BME280;32573;51.290;6.926;2023-02-20T10:22:48;100988.66;;;6.74;100.00
46836;BME280;32573;51.290;6.926;2023-02-20T10:25:23;100980.13;;;6.76;100.00
46836;BME280;32573;51.290;6.926;2023-02-20T10:27:52;100984.63;;;6.79;100.00
46836;BME280;32573;51.290;6.926;2023-02-20T10:30:26;100985.72;;;6.82;100.00
46836;BME280;32573;51.290;6.926;2023-02-20T10:33:01;100993.56;;;6.84;100.00
46836;BME280;32573;51.290;6.926;2023-02-20T10:35:32;100985.97;;;6.87;100.00
46836;BME280;32573;51.290;6.926;2023-02-20T10:38:07;100975.63;;;6.88;100.00
46836;BME280;32573;51.290;6.926;2023-02-20T10:40:40;100973.13;;;6.90;100.00
46836;BME280;32573;51.290;6.926;2023-02-20T10:43:14;100957.66;;;6.93;100.00
46836;BME280;32573;51.290;6.926;2023-02-20T10:45:53;100977.84;;;6.97;100.00
46836;BME280;32573;51.290;6.926;2023-02-20T10:48:25;100961.50;;;7.00;100.00
46836;BME280;32573;51.290;6.926;2023-02-20T10:51:04;100970.38;;;7.03;100.00
46836;BME280;32573;51.290;6.926;2023-02-20T10:53:38;100946.16;;;7.04;100.00
46836;BME280;32573;51.290;6.926;2023-02-20T10:56:13;100950.53;;;7.05;100.00
46836;BME280;32573;51.290;6.926;2023-02-20T10:58:48;100950.69;;;7.08;100.00
46836;BME280;32573;51.290;6.926;2023-02-20T11:01:23;100951.69;;;7.10;100.00
46836;BME280;32573;51.290;6.926;2023-02-20T11:03:58;100953.66;;;7.15;100.00
46836;BME280;32573;51.290;6.926;2023-02-20T11:06:31;100945.03;;;7.16;100.00
46836;BME280;32573;51.290;6.926;2023-02-20T11:09:01;100953.81;;;7.18;100.00
46836;BME280;32573;51.290;6.926;2023-02-20T11:11:31;100938.19;;;7.18;100.00
46836;BME280;32573;51.290;6.926;2023-02-20T11:14:10;100939.97;;;7.19;100.00
46836;BME280;32573;51.290;6.926;2023-02-20T11:16:45;100925.34;;;7.21;100.00
46836;BME280;32573;51.290;6.926;2023-02-20T11:19:17;100908.97;;;7.23;100.00
46836;BME280;32573;51.290;6.926;2023-02-20T11:21:49;100903.03;;;7.26;100.00
46836;BME280;32573;51.290;6.926;2023-02-20T11:24:30;100922.34;;;7.29;100.00
46836;BME280;32573;51.290;6.926;2023-02-20T11:27:02;100957.19;;;7.31;100.00
46836;BME280;32573;51.290;6.926;2023-02-20T11:29:34;100926.81;;;7.32;100.00
46836;BME280;32573;51.290;6.926;2023-02-20T11:32:25;100931.19;;;7.33;100.00
46836;BME280;32573;51.290;6.926;2023-02-20T11:35:18;100927.81;;;7.34;100.00
46836;BME280;32573;51.290;6.926;2023-02-20T11:37:49;100930.41;;;7.34;100.00
46836;BME280;32573;51.290;6.926;2023-02-20T11:40:26;100908.75;;;7.35;100.00
46836;BME280;32573;51.290;6.926;2023-02-20T11:42:55;100911.34;;;7.35;100.00
46836;BME280;32573;51.290;6.926;2023-02-20T11:45:25;100920.16;;;7.37;100.00
46836;BME280;32573;51.290;6.926;2023-02-20T11:48:10;100926.34;;;7.39;100.00
46836;BME280;32573;51.290;6.926;2023-02-20T11:50:40;100923.72;;;7.39;100.00
46836;BME280;32573;51.290;6.926;2023-02-20T11:53:18;100921.13;;;7.39;100.00
46836;BME280;32573;51.290;6.926;2023-02-20T11:55:47;100925.50;;;7.40;100.00
46836;BME280;32573;51.290;6.926;2023-02-20T11:58:27;100925.50;;;7.40;100.00
46836;BME280;32573;51.290;6.926;2023-02-20T12:00:55;100906.44;;;7.41;100.00
46836;BME280;32573;51.290;6.926;2023-02-20T12:03:26;100914.44;;;7.44;100.00
46836;BME280;32573;51.290;6.926;2023-02-20T12:05:56;100913.63;;;7.45;100.00
46836;BME280;32573;51.290;6.926;2023-02-20T12:08:50;100907.69;;;7.48;100.00
46836;BME280;32573;51.290;6.926;2023-02-20T12:11:23;100894.75;;;7.49;100.00
46836;BME280;32573;51.290;6.926;2023-02-20T12:13:53;100911.25;;;7.50;100.00
46836;BME280;32573;51.290;6.926;2023-02-20T12:16:31;100913.78;;;7.48;100.00
46836;BME280;32573;51.290;6.926;2023-02-20T12:19:09;100905.00;;;7.46;100.00
46836;BME280;32573;51.290;6.926;2023-02-20T12:21:52;100914.50;;;7.46;100.00
46836;BME280;32573;51.290;6.926;2023-02-20T12:24:33;100918.81;;;7.45;100.00
46836;BME280;32573;51.290;6.926;2023-02-20T12:27:22;100900.50;;;7.44;100.00
46836;BME280;32573;51.290;6.926;2023-02-20T12:29:58;100910.03;;;7.43;100.00
46836;BME280;32573;51.290;6.926;2023-02-20T12:32:31;100906.44;;;7.41;100.00
46836;BME280;32573;51.290;6.926;2023-02-20T12:35:15;100915.09;;;7.40;100.00
46836;BME280;32573;51.290;6.926;2023-02-20T12:37:54;100902.91;;;7.39;100.00
46836;BME280;32573;51.290;6.926;2023-02-20T12:40:39;100887.28;;;7.39;100.00
46836;BME280;32573;51.290;6.926;2023-02-20T12:43:21;100897.69;;;7.39;100.00
46836;BME280;32573;51.290;6.926;2023-02-20T12:45:59;100919.31;;;7.38;100.00
46836;BME280;32573;51.290;6.926;2023-02-20T12:48:41;100895.88;;;7.38;100.00
46836;BME280;32573;51.290;6.926;2023-02-20T12:51:25;100884.47;;;7.36;100.00
46836;BME280;32573;51.290;6.926;2023-02-20T12:54:06;100880.09;;;7.35;100.00
46836;BME280;32573;51.290;6.926;2023-02-20T12:56:53;100887.09;;;7.36;100.00
46836;BME280;32573;51.290;6.926;2023-02-20T12:59:27;100887.09;;;7.36;100.00
46836;BME280;32573;51.290;6.926;2023-02-20T13:02:03;100867.22;;;7.38;100.00
46836;BME280;32573;51.290;6.926;2023-02-20T13:04:43;100848.22;;;7.39;100.00
46836;BME280;32573;51.290;6.926;2023-02-20T13:07:17;100861.28;;;7.41;100.00
46836;BME280;32573;51.290;6.926;2023-02-20T13:09:57;100867.38;;;7.41;100.00
46836;BME280;32573;51.290;6.926;2023-02-20T13:12:26;100862.28;;;7.43;100.00
46836;BME280;32573;51.290;6.926;2023-02-20T13:15:06;100844.13;;;7.44;100.00
46836;BME280;32573;51.290;6.926;2023-02-20T13:17:39;100845.09;;;7.46;100.00
46836;BME280;32573;51.290;6.926;2023-02-20T13:20:16;100831.16;;;7.46;100.00
46836;BME280;32573;51.290;6.926;2023-02-20T13:23:04;100828.66;;;7.47;100.00
46836;BME280;32573;51.290;6.926;2023-02-20T13:25:38;100822.63;;;7.48;100.00